Time;durP1;ratioP1;P1;durP2;ratioP2;P2;SDS_P1;SDS_P2;PMS_P1;PMS_P2;Temp;Humidity;BMP_temperature;BMP_pressure;BME280_temperature;BME280_humidity;BME280_pressure;Samples;Min_cycle;Max_cycle;Signal;HPM_P1;HPM_P2
2023/05/11 00:01:16;;;;;;;15.48;4.55;;;;;;;12.12;69.90;101361.69;5070563;28;20040;-83
2023/05/11 00:03:42;;;;;;;8.98;4.53;;;;;;;12.15;70.05;101366.84;5070801;28;20024;-81
2023/05/11 00:06:07;;;;;;;13.40;4.57;;;;;;;12.17;70.39;101370.31;5072229;28;20028;-83
2023/05/11 00:08:33;;;;;;;13.60;5.35;;;;;;;12.20;70.19;101372.78;5080892;28;20035;-81
2023/05/11 00:11:01;;;;;;;9.18;4.20;;;;;;;12.23;70.71;101362.59;5072053;28;20127;-83
2023/05/11 00:13:27;;;;;;;8.98;4.10;;;;;;;12.29;71.27;101361.28;5069216;28;20028;-83
2023/05/11 00:15:53;;;;;;;12.18;4.53;;;;;;;12.26;71.09;101364.22;5068968;28;20487;-82
2023/05/11 00:18:19;;;;;;;13.27;3.90;;;;;;;12.27;71.39;101355.13;5067588;28;20031;-82
2023/05/11 00:20:45;;;;;;;23.65;6.30;;;;;;;12.33;71.54;101362.75;5068527;28;20036;-83
2023/05/11 00:23:10;;;;;;;23.17;6.57;;;;;;;12.41;71.03;101363.03;5068946;28;20082;-83
2023/05/11 00:25:36;;;;;;;10.07;5.28;;;;;;;12.37;71.24;101348.06;5068613;28;20056;-82
2023/05/11 00:28:01;;;;;;;10.20;4.70;;;;;;;12.35;71.13;101342.75;5068828;28;20504;-82
2023/05/11 00:30:26;;;;;;;11.00;3.95;;;;;;;12.39;71.27;101360.44;5069538;28;20083;-82
2023/05/11 00:32:52;;;;;;;14.38;4.97;;;;;;;12.40;71.75;101361.31;5072703;28;20028;-83
2023/05/11 00:35:18;;;;;;;24.05;5.72;;;;;;;12.42;71.61;101364.72;5072643;28;20035;-82
2023/05/11 00:37:43;;;;;;;11.30;4.30;;;;;;;12.43;71.46;101369.16;5070662;28;20052;-82
2023/05/11 00:40:09;;;;;;;13.98;4.07;;;;;;;12.36;71.60;101365.19;5072263;28;20030;-82
2023/05/11 00:42:35;;;;;;;8.98;4.63;;;;;;;12.39;71.18;101365.84;5072423;28;20119;-83
2023/05/11 00:45:00;;;;;;;5.57;3.72;;;;;;;12.38;71.28;101374.06;5072866;28;20047;-83
2023/05/11 00:47:26;;;;;;;6.40;4.03;;;;;;;12.41;70.94;101374.69;5072904;28;20491;-83
2023/05/11 00:49:52;;;;;;;13.00;4.40;;;;;;;12.40;71.00;101372.09;5071530;28;20399;-83
2023/05/11 00:52:21;;;;;;;12.23;4.80;;;;;;;12.34;71.10;101359.06;5072489;28;20025;-83
2023/05/11 00:54:47;;;;;;;7.85;3.97;;;;;;;12.16;70.98;101368.59;5073026;28;20024;-83
2023/05/11 00:57:13;;;;;;;13.90;5.20;;;;;;;12.10;71.66;101369.03;5072864;28;20509;-81
2023/05/11 00:59:40;;;;;;;7.60;4.28;;;;;;;12.08;71.57;101358.38;5072886;28;20513;-83
2023/05/11 01:02:05;;;;;;;17.33;5.03;;;;;;;11.97;71.86;101366.41;5072929;28;20036;-83
2023/05/11 01:04:32;;;;;;;8.00;4.32;;;;;;;11.84;71.96;101358.38;5081230;28;20035;-83
2023/05/11 01:07:13;;;;;;;10.50;4.32;;;;;;;11.88;72.37;101364.41;5085714;28;20024;-82
2023/05/11 01:10:07;;;;;;;7.15;4.30;;;;;;;11.82;72.38;101360.34;5075113;28;20024;-82
2023/05/11 01:12:45;;;;;;;6.82;4.35;;;;;;;11.80;72.57;101366.84;5072688;28;20051;-83
2023/05/11 01:15:49;;;;;;;10.60;4.53;;;;;;;11.71;73.03;101360.28;5073162;28;20031;-83
2023/05/11 01:18:19;;;;;;;8.68;4.07;;;;;;;11.67;73.77;101361.47;5072391;28;20041;-83
2023/05/11 01:20:47;;;;;;;19.13;4.38;;;;;;;11.59;73.86;101357.63;5071866;28;20429;-83
2023/05/11 01:23:50;;;;;;;10.07;4.82;;;;;;;11.75;74.02;101374.38;5071664;28;20028;-83
2023/05/11 01:26:34;;;;;;;10.25;5.72;;;;;;;11.76;73.79;101373.41;5071549;28;20086;-82
2023/05/11 01:29:37;;;;;;;14.30;4.38;;;;;;;11.80;74.02;101378.44;5070073;28;20029;-83
2023/05/11 01:32:09;;;;;;;9.23;5.03;;;;;;;11.86;73.75;101371.75;5071430;28;20031;-81
2023/05/11 01:34:37;;;;;;;9.85;4.35;;;;;;;11.88;73.72;101359.03;5071316;28;20032;-84
2023/05/11 01:37:14;;;;;;;12.55;5.00;;;;;;;11.91;73.84;101350.69;5070904;28;20055;-82
2023/05/11 01:39:49;;;;;;;6.50;4.13;;;;;;;11.99;73.30;101361.75;5071939;28;20438;-82
2023/05/11 01:42:16;;;;;;;11.43;5.45;;;;;;;12.02;73.26;101359.69;5078085;28;20059;-82
2023/05/11 01:44:46;;;;;;;15.93;5.68;;;;;;;11.94;73.38;101347.78;5072020;28;20668;-81
2023/05/11 01:47:13;;;;;;;17.50;5.00;;;;;;;11.95;73.31;101350.38;5072228;28;20106;-84
2023/05/11 01:49:43;;;;;;;18.88;4.63;;;;;;;11.96;73.55;101357.47;5072030;28;20035;-81
2023/05/11 01:52:10;;;;;;;7.55;4.68;;;;;;;11.96;73.40;101346.69;5073643;28;20028;-82
2023/05/11 01:54:37;;;;;;;8.27;5.72;;;;;;;11.97;73.15;101342.16;5072716;28;20021;-82
2023/05/11 01:57:04;;;;;;;11.75;4.15;;;;;;;12.04;73.55;101350.63;5071547;28;20040;-82
2023/05/11 01:59:31;;;;;;;7.22;4.65;;;;;;;12.13;73.77;101352.63;5071001;28;20104;-82
2023/05/11 02:01:58;;;;;;;11.80;4.43;;;;;;;12.07;73.39;101353.97;5079591;28;20028;-80
2023/05/11 02:04:25;;;;;;;13.27;5.38;;;;;;;12.07;73.97;101356.66;5078463;28;20328;-82
2023/05/11 02:06:52;;;;;;;31.08;5.53;;;;;;;12.08;73.92;101355.66;5072055;28;20029;-82
2023/05/11 02:09:20;;;;;;;9.65;4.65;;;;;;;12.08;73.93;101350.28;5077974;28;20021;-81
2023/05/11 02:11:48;;;;;;;9.32;4.40;;;;;;;12.07;73.64;101348.56;5074931;28;20036;-81
2023/05/11 02:14:16;;;;;;;7.57;5.03;;;;;;;12.08;73.90;101352.13;5071460;28;20017;-82
2023/05/11 02:16:43;;;;;;;18.70;4.80;;;;;;;12.11;74.44;101349.22;5071655;28;20039;-83
2023/05/11 02:19:12;;;;;;;18.88;4.82;;;;;;;12.15;74.23;101350.66;5071274;28;20028;-83
2023/05/11 02:21:39;;;;;;;8.32;5.22;;;;;;;12.25;73.34;101346.31;5070976;28;20025;-82
2023/05/11 02:24:06;;;;;;;5.30;4.32;;;;;;;12.25;73.45;101346.31;5070986;28;20103;-82
2023/05/11 02:26:32;;;;;;;8.43;4.78;;;;;;;12.13;73.61;101334.63;5071470;28;20063;-82
2023/05/11 02:28:57;;;;;;;11.57;5.07;;;;;;;12.03;73.41;101330.91;5071214;28;20060;-83
2023/05/11 02:31:27;;;;;;;6.50;4.95;;;;;;;12.11;73.80;101344.66;5070772;28;20502;-83
2023/05/11 02:33:58;;;;;;;8.75;4.53;;;;;;;12.17;73.61;101344.19;5070207;28;20031;-84
2023/05/11 02:36:28;;;;;;;23.08;7.72;;;;;;;12.16;73.40;101341.63;5070280;28;20051;-83
2023/05/11 02:39:01;;;;;;;24.63;5.68;;;;;;;12.15;73.07;101345.28;5069919;28;20498;-82
2023/05/11 02:41:28;;;;;;;17.33;5.60;;;;;;;12.13;73.56;101337.31;5069962;28;20508;-83
2023/05/11 02:43:58;;;;;;;14.15;4.97;;;;;;;12.17;74.34;101330.69;5070476;28;20032;-81
2023/05/11 02:46:34;;;;;;;8.80;4.63;;;;;;;12.23;74.28;101341.00;5070255;28;20046;-82
2023/05/11 02:49:02;;;;;;;9.30;4.60;;;;;;;12.16;74.57;101330.81;5070522;28;20021;-82
2023/05/11 02:51:33;;;;;;;11.82;4.63;;;;;;;12.28;73.75;101338.84;5069748;28;20029;-83
2023/05/11 02:54:00;;;;;;;11.00;4.55;;;;;;;12.24;73.62;101345.44;5069685;28;20024;-81
2023/05/11 02:56:26;;;;;;;6.72;4.07;;;;;;;12.25;73.55;101346.31;5071910;28;20021;-83
2023/05/11 02:58:52;;;;;;;7.30;4.15;;;;;;;12.26;73.55;101348.03;5081113;28;20028;-82
2023/05/11 03:01:18;;;;;;;12.82;5.10;;;;;;;12.26;73.46;101348.03;5080477;28;20028;-83
2023/05/11 03:03:44;;;;;;;11.38;4.03;;;;;;;12.32;73.43;101352.94;5070372;28;20025;-83
2023/05/11 03:06:09;;;;;;;16.05;5.47;;;;;;;12.28;74.17;101333.44;5070230;28;20380;-82
2023/05/11 03:08:35;;;;;;;8.65;4.07;;;;;;;12.40;73.55;101350.50;5068670;28;20029;-84
2023/05/11 03:11:01;;;;;;;11.20;4.65;;;;;;;12.45;73.39;101351.88;5070091;28;20062;-82
2023/05/11 03:13:28;;;;;;;9.43;4.45;;;;;;;12.53;73.10;101357.53;5070289;28;20029;-82
2023/05/11 03:15:54;;;;;;;13.18;4.03;;;;;;;12.35;73.20;101358.09;5084745;28;20044;-82
2023/05/11 03:18:20;;;;;;;11.70;4.45;;;;;;;12.43;73.14;101356.53;5069644;28;20123;-83
2023/05/11 03:20:46;;;;;;;13.93;4.25;;;;;;;12.37;73.29;101350.75;5069691;28;20033;-82
2023/05/11 03:23:13;;;;;;;9.85;4.22;;;;;;;12.38;73.38;101349.78;5069745;28;20031;-82
2023/05/11 03:25:42;;;;;;;14.82;4.47;;;;;;;12.41;73.30;101357.63;5069196;28;20036;-81
2023/05/11 03:28:08;;;;;;;15.23;5.30;;;;;;;12.40;73.60;101372.09;5069717;28;20048;-81
2023/05/11 03:30:36;;;;;;;12.70;5.22;;;;;;;12.42;73.60;101365.59;5069615;28;20025;-82
2023/05/11 03:33:01;;;;;;;15.38;4.57;;;;;;;12.48;72.95;101364.25;5069792;28;20158;-81
2023/05/11 03:35:30;;;;;;;6.72;4.40;;;;;;;12.46;72.90;101366.22;5069423;28;20111;-81
2023/05/11 03:37:57;;;;;;;34.53;6.10;;;;;;;12.50;73.18;101367.72;5068981;28;20059;-82
2023/05/11 03:40:23;;;;;;;9.32;3.95;;;;;;;12.56;72.65;101375.34;5067947;28;20403;-81
2023/05/11 03:42:52;;;;;;;27.58;4.13;;;;;;;12.58;72.77;101376.06;5068855;28;20097;-80
2023/05/11 03:45:19;;;;;;;19.42;4.47;;;;;;;12.59;72.68;101372.41;5069412;28;20035;-82
2023/05/11 03:47:47;;;;;;;12.85;4.57;;;;;;;12.54;72.83;101369.16;5069635;28;20028;-81
2023/05/11 03:50:13;;;;;;;16.35;5.35;;;;;;;12.65;73.03;101371.91;5068639;28;20027;-83
2023/05/11 03:52:39;;;;;;;4.60;3.33;;;;;;;12.62;72.79;101371.28;5068942;28;20085;-82
2023/05/11 03:55:05;;;;;;;10.60;4.22;;;;;;;12.74;72.57;101382.00;5078293;28;20024;-84
2023/05/11 03:57:31;;;;;;;15.63;6.13;;;;;;;12.72;72.64;101362.34;5088907;28;20484;-85
2023/05/11 03:59:56;;;;;;;18.65;5.25;;;;;;;12.93;72.63;101371.47;5074987;28;20067;-83
2023/05/11 04:02:23;;;;;;;10.05;4.30;;;;;;;12.75;71.88;101356.69;5071560;28;20028;-83
2023/05/11 04:04:49;;;;;;;13.02;4.30;;;;;;;12.82;72.08;101378.66;5071541;28;20028;-85
2023/05/11 04:07:15;;;;;;;15.50;4.55;;;;;;;12.69;72.21;101378.78;5071793;28;20032;-83
2023/05/11 04:09:40;;;;;;;13.93;4.93;;;;;;;12.66;72.17;101381.72;5074460;28;20511;-83
2023/05/11 04:12:06;;;;;;;25.13;5.90;;;;;;;12.74;71.91;101371.19;5080272;28;20058;-83
2023/05/11 04:14:34;;;;;;;17.77;5.50;;;;;;;12.60;72.05;101347.09;5075939;28;20035;-83
2023/05/11 04:17:00;;;;;;;22.63;5.32;;;;;;;12.86;72.01;101385.56;5074108;28;20518;-83
2023/05/11 04:19:26;;;;;;;21.67;4.47;;;;;;;12.76;72.05;101369.22;5074295;28;20037;-80
2023/05/11 04:21:51;;;;;;;22.20;7.03;;;;;;;12.87;72.09;101374.63;5076000;28;20020;-81
2023/05/11 04:24:16;;;;;;;18.17;4.28;;;;;;;13.03;72.04;101390.47;5085529;28;20063;-85
2023/05/11 04:26:42;;;;;;;34.75;5.82;;;;;;;13.22;71.49;101398.00;5074786;28;20059;-83
2023/05/11 04:29:07;;;;;;;23.42;4.75;;;;;;;13.35;70.65;101398.75;5072744;28;20025;-83
2023/05/11 04:31:33;;;;;;;20.75;5.13;;;;;;;13.34;70.33;101388.91;5072300;28;20032;-84
2023/05/11 04:33:58;;;;;;;22.45;6.55;;;;;;;13.49;70.33;101395.78;5070418;28;20051;-83
2023/05/11 04:36:24;;;;;;;16.95;5.25;;;;;;;13.34;70.05;101386.22;5071348;28;20742;-84
2023/05/11 04:38:49;;;;;;;24.15;5.72;;;;;;;13.44;70.11;101398.00;5072550;28;20048;-85
2023/05/11 04:41:15;;;;;;;20.48;5.32;;;;;;;13.48;70.17;101405.75;5072579;28;20024;-79
2023/05/11 04:43:40;;;;;;;21.05;5.63;;;;;;;13.27;69.93;101375.03;5075271;28;20487;-82
2023/05/11 04:46:06;;;;;;;28.02;5.07;;;;;;;13.20;68.03;101367.56;5074602;28;20056;-80
2023/05/11 04:48:31;;;;;;;15.93;4.00;;;;;;;13.47;66.56;101405.84;5074002;28;20024;-78
2023/05/11 04:50:57;;;;;;;23.95;4.85;;;;;;;13.30;65.62;101390.16;5076385;28;20377;-82
2023/05/11 04:53:22;;;;;;;15.75;3.20;;;;;;;13.13;64.72;101366.31;5080252;28;20046;-84
2023/05/11 04:55:48;;;;;;;19.02;3.83;;;;;;;13.36;64.08;101395.06;5076560;28;20025;-84
2023/05/11 04:58:14;;;;;;;33.92;4.82;;;;;;;13.45;64.09;101410.53;5073826;28;20028;-84
2023/05/11 05:00:40;;;;;;;25.35;5.25;;;;;;;13.45;63.65;101415.94;5073724;28;20063;-86
2023/05/11 05:03:05;;;;;;;6.28;3.00;;;;;;;13.43;63.20;101421.44;5072208;28;20509;-84
2023/05/11 05:05:31;;;;;;;8.55;2.67;;;;;;;13.34;63.51;101407.81;5072223;28;20029;-79
2023/05/11 05:07:56;;;;;;;21.25;3.42;;;;;;;13.35;63.76;101409.56;5072270;28;20028;-81
2023/05/11 05:10:22;;;;;;;11.65;4.28;;;;;;;13.39;64.29;101427.25;5072925;28;20104;-82
2023/05/11 05:12:48;;;;;;;28.13;3.60;;;;;;;13.28;63.89;101411.00;5073757;28;20035;-79
2023/05/11 05:15:13;;;;;;;7.30;3.15;;;;;;;13.37;64.18;101418.38;5071916;28;20033;-80
2023/05/11 05:17:39;;;;;;;16.27;3.72;;;;;;;13.29;64.81;101412.75;5073831;28;20078;-79
2023/05/11 05:20:08;;;;;;;14.43;4.05;;;;;;;13.12;64.52;101388.94;5073611;28;20028;-81
2023/05/11 05:22:33;;;;;;;32.67;5.55;;;;;;;13.35;63.74;101425.75;5071203;28;20033;-81
2023/05/11 05:24:59;;;;;;;79.40;10.38;;;;;;;13.29;63.57;101415.44;5072571;28;20031;-89
2023/05/11 05:27:25;;;;;;;17.70;4.57;;;;;;;13.41;63.04;101419.88;5071815;28;20032;-84
2023/05/11 05:29:51;;;;;;;12.93;3.38;;;;;;;13.63;62.42;101438.78;5071752;28;20427;-84
2023/05/11 05:32:16;;;;;;;13.43;3.22;;;;;;;13.44;61.83;101409.69;5072341;28;20028;-85
2023/05/11 05:34:42;;;;;;;20.00;3.90;;;;;;;13.62;62.11;101445.16;5071916;28;20112;-82
2023/05/11 05:37:08;;;;;;;35.47;6.43;;;;;;;13.53;62.59;101426.97;5072861;28;20080;-84
2023/05/11 05:39:33;;;;;;;13.50;3.97;;;;;;;13.61;62.84;101448.84;5073075;28;20025;-83
2023/05/11 05:41:59;;;;;;;39.30;5.40;;;;;;;13.62;63.88;101435.22;5073720;28;20041;-81
2023/05/11 05:44:24;;;;;;;14.52;3.97;;;;;;;13.50;63.96;101416.41;5072936;28;20024;-84
2023/05/11 05:46:50;;;;;;;26.40;5.43;;;;;;;13.53;64.40;101432.38;5079656;28;20119;-84
2023/05/11 05:49:15;;;;;;;17.48;4.80;;;;;;;13.60;64.44;101436.31;5080575;28;20024;-81
2023/05/11 05:51:41;;;;;;;25.95;3.13;;;;;;;13.82;63.60;101457.91;5073823;28;20032;-81
2023/05/11 05:54:06;;;;;;;22.17;3.88;;;;;;;13.87;63.77;101466.50;5071922;28;20024;-83
2023/05/11 05:56:33;;;;;;;12.57;3.83;;;;;;;13.98;62.88;101458.38;5072289;28;20040;-81
2023/05/11 05:58:59;;;;;;;11.52;4.45;;;;;;;14.07;62.61;101464.84;5071498;28;20103;-85
2023/05/11 06:01:25;;;;;;;8.68;3.90;;;;;;;14.15;61.99;101462.41;5071842;28;20035;-84
2023/05/11 06:03:51;;;;;;;14.02;3.40;;;;;;;14.15;60.96;101432.63;5072385;28;20029;-86
2023/05/11 06:06:17;;;;;;;15.27;4.38;;;;;;;14.37;60.94;101447.97;5074055;28;20032;-86
2023/05/11 06:08:42;;;;;;;10.55;3.60;;;;;;;14.35;59.90;101441.81;5072714;28;20025;-85
2023/05/11 06:11:08;;;;;;;13.95;4.25;;;;;;;14.34;60.08;101442.81;5072294;28;20038;-82
2023/05/11 06:13:34;;;;;;;11.10;4.20;;;;;;;14.57;59.71;101456.13;5074253;28;20441;-83
2023/05/11 06:15:59;;;;;;;5.30;2.95;;;;;;;14.35;58.94;101433.69;5074995;28;20448;-83
2023/05/11 06:18:25;;;;;;;17.20;3.78;;;;;;;14.54;58.53;101464.50;5076499;28;20044;-82
2023/05/11 06:20:50;;;;;;;12.38;4.55;;;;;;;14.60;59.02;101461.25;5078464;28;20105;-83
2023/05/11 06:23:16;;;;;;;7.88;3.17;;;;;;;14.69;58.36;101465.03;5079640;28;20020;-85
2023/05/11 06:25:41;;;;;;;24.65;4.18;;;;;;;14.59;57.56;101470.38;5078173;28;20029;-84
2023/05/11 06:28:07;;;;;;;8.35;4.70;;;;;;;14.50;57.48;101464.88;5072296;28;20009;-85
2023/05/11 06:30:33;;;;;;;17.13;3.75;;;;;;;14.49;57.54;101446.94;5077118;28;20024;-85
2023/05/11 06:32:58;;;;;;;18.08;5.25;;;;;;;14.43;57.95;101440.16;5074885;28;20048;-83
2023/05/11 06:35:24;;;;;;;9.20;3.35;;;;;;;14.67;58.30;101467.88;5071814;28;20028;-82
2023/05/11 06:37:49;;;;;;;20.98;4.45;;;;;;;14.84;58.50;101477.25;5073379;28;20045;-80
2023/05/11 06:40:15;;;;;;;10.35;3.92;;;;;;;14.62;58.61;101436.75;5073629;28;20051;-83
2023/05/11 06:42:41;;;;;;;14.95;4.18;;;;;;;14.81;58.72;101457.69;5083840;28;20064;-87
2023/05/11 06:45:08;;;;;;;10.10;4.90;;;;;;;14.77;59.53;101467.94;5084847;28;20031;-86
2023/05/11 06:47:33;;;;;;;21.25;5.13;;;;;;;14.87;59.65;101471.59;5073937;28;20037;-84
2023/05/11 06:49:59;;;;;;;23.73;4.68;;;;;;;14.80;59.96;101459.53;5069778;28;20044;-81
2023/05/11 06:52:24;;;;;;;14.45;4.40;;;;;;;14.78;60.21;101468.78;5070348;28;20036;-87
2023/05/11 06:54:50;;;;;;;18.58;4.15;;;;;;;14.88;60.18;101451.63;5070686;28;20028;-85
2023/05/11 06:57:15;;;;;;;15.25;4.15;;;;;;;15.03;60.77;101463.84;5070873;28;20036;-86
2023/05/11 06:59:41;;;;;;;10.73;3.85;;;;;;;15.14;60.90;101455.63;5069885;28;20070;-88
2023/05/11 07:02:06;;;;;;;22.73;4.55;;;;;;;15.27;60.30;101453.59;5069852;28;20031;-85
2023/05/11 07:04:32;;;;;;;32.65;6.93;;;;;;;15.55;59.79;101470.16;5069969;28;20028;-86
2023/05/11 07:06:57;;;;;;;17.38;4.20;;;;;;;15.74;58.63;101452.09;5070473;28;20078;-84
2023/05/11 07:09:23;;;;;;;16.80;4.78;;;;;;;15.75;58.37;101461.06;5069890;28;20020;-87
2023/05/11 07:11:50;;;;;;;19.83;4.15;;;;;;;15.88;58.56;101456.28;5069444;28;20036;-85
2023/05/11 07:14:16;;;;;;;16.73;4.90;;;;;;;15.85;58.20;101456.56;5070798;28;20029;-81
2023/05/11 07:16:42;;;;;;;24.05;4.72;;;;;;;15.96;58.26;101461.03;5070146;28;20115;-85
2023/05/11 07:19:08;;;;;;;18.80;4.22;;;;;;;15.99;57.50;101472.44;5070840;28;20052;-82
2023/05/11 07:21:35;;;;;;;30.08;4.55;;;;;;;15.93;56.98;101448.56;5071650;28;20471;-83
2023/05/11 07:24:00;;;;;;;16.38;3.70;;;;;;;16.04;57.21;101483.75;5070910;28;20028;-81
2023/05/11 07:26:26;;;;;;;32.38;5.93;;;;;;;16.15;56.82;101486.31;5069838;28;20431;-85
2023/05/11 07:28:51;;;;;;;11.90;3.33;;;;;;;16.01;56.28;101486.72;5070965;28;20040;-82
2023/05/11 07:31:17;;;;;;;28.40;5.15;;;;;;;15.92;56.84;101495.72;5070266;28;20468;-83
2023/05/11 07:33:42;;;;;;;24.45;5.15;;;;;;;15.83;56.22;101501.97;5071721;28;20025;-83
2023/05/11 07:36:08;;;;;;;13.05;4.38;;;;;;;15.58;56.49;101459.03;5071562;28;20025;-82
2023/05/11 07:38:33;;;;;;;8.25;4.10;;;;;;;15.65;57.03;101481.91;5076925;28;20048;-81
2023/05/11 07:40:59;;;;;;;23.90;4.00;;;;;;;15.70;57.73;101493.19;5082958;28;20021;-86
2023/05/11 07:43:24;;;;;;;23.77;4.68;;;;;;;15.58;58.43;101491.56;5078799;28;20041;-83
2023/05/11 07:45:50;;;;;;;16.17;4.20;;;;;;;15.69;58.65;101496.88;5073794;28;20028;-82
2023/05/11 07:48:16;;;;;;;10.30;5.13;;;;;;;15.85;58.17;101483.69;5072365;28;20082;-81
2023/05/11 07:50:42;;;;;;;14.77;4.60;;;;;;;15.96;58.06;101491.69;5073360;28;20097;-80
2023/05/11 07:53:08;;;;;;;18.40;4.22;;;;;;;16.00;57.08;101497.72;5073857;28;20387;-83
2023/05/11 07:55:34;;;;;;;12.70;4.28;;;;;;;16.00;57.08;101473.28;5072498;28;20028;-86
2023/05/11 07:57:59;;;;;;;20.92;4.13;;;;;;;16.03;56.25;101498.28;5073929;28;20403;-84
2023/05/11 08:00:25;;;;;;;10.40;3.63;;;;;;;15.77;56.79;101491.66;5088666;28;20045;-82
2023/05/11 08:02:51;;;;;;;24.45;6.07;;;;;;;15.96;56.84;101502.56;5073704;28;20032;-84
2023/05/11 08:05:18;;;;;;;26.33;4.53;;;;;;;16.04;56.86;101494.59;5073659;28;20090;-82
2023/05/11 08:07:43;;;;;;;20.75;5.55;;;;;;;16.11;57.20;101490.34;5062901;28;20036;-80
2023/05/11 08:10:10;;;;;;;27.02;4.90;;;;;;;16.21;56.44;101512.91;5056376;28;20033;-84
2023/05/11 08:12:36;;;;;;;11.45;3.72;;;;;;;16.18;56.61;101491.47;5056425;28;20138;-82
2023/05/11 08:15:02;;;;;;;20.08;3.70;;;;;;;16.23;56.53;101510.94;5053592;28;20029;-81
2023/05/11 08:17:28;;;;;;;14.90;5.15;;;;;;;16.49;56.54;101515.81;5054905;28;20028;-82
2023/05/11 08:19:55;;;;;;;5.03;3.38;;;;;;;16.51;55.77;101513.84;5053543;28;20041;-81
2023/05/11 08:22:20;;;;;;;11.45;3.88;;;;;;;16.61;56.15;101520.16;5053648;28;20345;-80
2023/05/11 08:24:46;;;;;;;8.05;3.72;;;;;;;16.70;55.74;101498.41;5052317;28;20029;-85
2023/05/11 08:27:11;;;;;;;12.82;4.25;;;;;;;16.80;54.62;101509.28;5052753;28;20036;-81
2023/05/11 08:29:37;;;;;;;8.63;3.65;;;;;;;17.01;54.79;101503.69;5053784;28;20033;-81
2023/05/11 08:32:02;;;;;;;20.23;4.40;;;;;;;16.96;54.40;101506.84;5054129;28;20495;-81
2023/05/11 08:34:28;;;;;;;13.05;3.40;;;;;;;17.01;54.39;101507.28;5057764;28;20036;-81
2023/05/11 08:36:54;;;;;;;22.90;5.75;;;;;;;17.04;54.32;101501.53;5061535;28;20079;-81
2023/05/11 08:39:21;;;;;;;32.28;5.20;;;;;;;16.96;53.28;101496.00;5054996;28;20883;-83
2023/05/11 08:41:48;;;;;;;18.58;4.63;;;;;;;17.08;53.83;101496.69;5052794;28;20048;-80
2023/05/11 08:44:15;;;;;;;36.13;5.97;;;;;;;17.00;53.07;101467.50;5052565;28;20506;-81
2023/05/11 08:46:43;;;;;;;11.63;3.97;;;;;;;16.92;53.72;101470.09;5052321;28;20033;-79
2023/05/11 08:49:09;;;;;;;39.42;7.90;;;;;;;17.06;54.08;101483.25;5051987;28;20459;-82
2023/05/11 08:51:37;;;;;;;26.10;5.13;;;;;;;17.24;54.09;101489.66;5053978;28;20025;-81
2023/05/11 08:54:03;;;;;;;13.27;4.95;;;;;;;17.21;54.06;101486.38;5053993;28;20035;-80
2023/05/11 08:56:29;;;;;;;5.70;3.25;;;;;;;17.26;53.33;101486.78;5052125;28;20033;-79
2023/05/11 08:58:56;;;;;;;12.05;3.85;;;;;;;17.10;53.06;101489.22;5050071;28;20041;-83
2023/05/11 09:01:22;;;;;;;7.28;3.97;;;;;;;16.95;54.03;101480.69;5056781;28;20040;-81
2023/05/11 09:03:49;;;;;;;23.45;5.05;;;;;;;17.06;53.06;101482.38;5052671;28;20112;-81
2023/05/11 09:06:16;;;;;;;15.80;4.55;;;;;;;17.28;53.03;101469.31;5051918;28;20087;-81
2023/05/11 09:08:43;;;;;;;21.33;4.43;;;;;;;17.40;52.96;101473.56;5071199;28;20028;-80
2023/05/11 09:11:09;;;;;;;27.92;4.85;;;;;;;17.33;53.06;101458.84;5070828;28;20086;-84
2023/05/11 09:13:35;;;;;;;27.95;4.57;;;;;;;17.36;53.26;101455.84;5070558;28;20047;-81
2023/05/11 09:16:01;;;;;;;20.05;4.50;;;;;;;17.28;53.31;101466.56;5070897;28;20111;-82
2023/05/11 09:18:26;;;;;;;21.83;4.30;;;;;;;17.36;52.88;101465.84;5071686;28;20025;-81
2023/05/11 09:20:52;;;;;;;12.90;3.80;;;;;;;17.30;52.41;101467.31;5070797;28;20040;-83
2023/05/11 09:23:25;;;;;;;9.25;4.38;;;;;;;17.39;53.15;101463.69;5071311;28;20569;-80
2023/05/11 09:25:50;;;;;;;12.95;5.22;;;;;;;17.45;52.61;101466.81;5072627;28;20071;-81
2023/05/11 09:28:20;;;;;;;33.72;6.82;;;;;;;17.61;52.71;101458.94;5071586;28;20468;-83
2023/05/11 09:30:46;;;;;;;6.63;3.20;;;;;;;17.27;52.64;101464.03;5078038;28;20403;-82
2023/05/11 09:33:11;;;;;;;7.97;2.88;;;;;;;17.30;53.69;101456.44;5078235;28;20033;-82
2023/05/11 09:35:36;;;;;;;19.13;4.15;;;;;;;17.50;53.36;101459.06;5072176;28;20021;-83
2023/05/11 09:38:06;;;;;;;10.40;4.03;;;;;;;17.78;53.28;101448.09;5070389;28;20055;-81
2023/05/11 09:40:50;;;;;;;11.55;3.95;;;;;;;17.50;51.89;101448.19;5051019;28;20824;-82
2023/05/11 09:43:19;;;;;;;28.10;4.05;;;;;;;17.51;52.09;101449.91;5070304;28;20040;-82
2023/05/11 09:45:50;;;;;;;12.45;3.53;;;;;;;17.21;53.26;101432.00;5070789;28;20064;-82
2023/05/11 09:48:15;;;;;;;14.75;4.47;;;;;;;17.30;53.77;101448.28;5071332;28;20028;-83
2023/05/11 09:50:42;;;;;;;34.50;6.00;;;;;;;17.45;53.09;101455.94;5070626;28;20023;-83
2023/05/11 09:53:08;;;;;;;12.57;4.38;;;;;;;17.30;52.71;101466.44;5070773;28;20025;-84
2023/05/11 09:55:34;;;;;;;22.02;4.32;;;;;;;17.00;53.60;101456.63;5070665;28;20028;-82
2023/05/11 09:57:59;;;;;;;18.80;4.47;;;;;;;17.21;54.33;101462.75;5070960;28;20112;-82
2023/05/11 10:00:25;;;;;;;26.00;4.68;;;;;;;17.25;53.78;101444.25;5071107;28;20082;-84
2023/05/11 10:03:05;;;;;;;14.50;4.18;;;;;;;17.41;52.89;101436.34;5069161;28;20036;-81
2023/05/11 10:05:33;;;;;;;42.55;5.53;;;;;;;17.75;52.79;101436.66;5071146;28;20020;-83
2023/05/11 10:08:00;;;;;;;15.52;3.63;;;;;;;18.05;52.50;101449.94;5070724;28;20029;-84
2023/05/11 10:10:28;;;;;;;7.18;4.18;;;;;;;18.12;51.13;101455.63;5071944;28;20039;-82
2023/05/11 10:12:56;;;;;;;14.38;4.10;;;;;;;18.01;49.40;101425.91;5072268;28;20032;-84
2023/05/11 10:15:26;;;;;;;13.73;3.72;;;;;;;17.88;49.83;101448.03;5076951;28;20017;-81
2023/05/11 10:17:57;;;;;;;25.48;5.15;;;;;;;17.77;50.33;101434.63;5073082;28;20472;-83
2023/05/11 10:20:24;;;;;;;17.20;4.00;;;;;;;17.76;51.59;101441.09;5076751;28;20095;-82
2023/05/11 10:22:54;;;;;;;16.02;4.10;;;;;;;17.81;51.27;101446.94;5074523;28;20139;-83
2023/05/11 10:25:25;;;;;;;20.65;4.40;;;;;;;18.00;50.45;101433.22;5071823;28;20074;-86
2023/05/11 10:27:52;;;;;;;31.77;6.32;;;;;;;18.31;48.86;101450.06;5076379;28;20032;-83
2023/05/11 10:30:18;;;;;;;13.70;3.47;;;;;;;18.57;48.62;101453.72;5076894;28;20150;-81
2023/05/11 10:32:45;;;;;;;12.13;3.67;;;;;;;18.55;48.98;101435.84;5070214;28;20483;-83
2023/05/11 10:35:12;;;;;;;13.02;3.75;;;;;;;18.33;48.87;101443.44;5069896;28;20364;-82
2023/05/11 10:37:38;;;;;;;7.63;3.20;;;;;;;18.01;49.85;101443.06;5067412;28;20047;-81
2023/05/11 10:40:06;;;;;;;13.02;3.85;;;;;;;17.90;50.64;101452.31;5069929;28;20051;-82
2023/05/11 10:42:49;;;;;;;16.38;4.75;;;;;;;17.88;50.24;101446.19;5070080;28;20110;-81
2023/05/11 10:45:28;;;;;;;18.40;4.10;;;;;;;18.04;51.09;101447.38;5070272;28;20024;-81
2023/05/11 10:48:15;;;;;;;18.02;3.47;;;;;;;17.79;50.22;101455.25;5070649;28;20032;-81
2023/05/11 10:51:15;;;;;;;10.70;3.08;;;;;;;17.68;49.78;101438.25;5069629;28;20056;-81
2023/05/11 10:54:02;;;;;;;33.33;4.80;;;;;;;17.90;50.33;101448.72;5069563;28;20060;-83
2023/05/11 10:56:45;;;;;;;9.20;3.55;;;;;;;18.03;50.44;101457.41;5070612;28;20025;-82
2023/05/11 10:59:22;;;;;;;5.10;2.67;;;;;;;18.01;50.93;101448.50;5071893;28;20029;-81
2023/05/11 11:01:57;;;;;;;12.18;3.47;;;;;;;18.08;50.73;101444.19;5070835;28;20024;-82
2023/05/11 11:04:22;;;;;;;31.02;4.47;;;;;;;18.36;50.40;101448.56;5070419;28;20111;-82
2023/05/11 11:07:03;;;;;;;17.92;3.47;;;;;;;18.54;50.20;101447.72;5070239;28;20191;-83
2023/05/11 11:09:51;;;;;;;9.57;3.17;;;;;;;18.47;50.72;101450.19;5070165;28;20036;-85
2023/05/11 11:12:18;;;;;;;11.55;3.13;;;;;;;18.35;50.15;101440.53;5069433;28;20442;-82
2023/05/11 11:14:58;;;;;;;29.55;4.50;;;;;;;18.28;50.47;101450.38;5069387;28;20036;-83
2023/05/11 11:17:26;;;;;;;19.45;4.78;;;;;;;18.09;50.71;101454.06;5071063;28;20236;-82
2023/05/11 11:19:52;;;;;;;9.55;3.40;;;;;;;17.80;51.15;101428.88;5071308;28;20028;-80
2023/05/11 11:22:33;;;;;;;5.82;3.25;;;;;;;17.87;51.69;101457.19;5074434;28;20535;-83